Hlavní strana
METAR-TAF:

METAR-TAF

Letiště :

Zeltweg, Rakousko

zeměpisná šířka: 47-12N, zeměpisná délka: 014-45E, výška: 677 m

Aktuální stav počasí

Zpráva byla vytvořena před 4 hodinami a 59 minutami, v 20:50 UTC
vítr z různých směrů 3 kt
Teplota 19°C
Vlhkost vzduchu 78%
Tlak 1023 hPa

METAR: LOXZ 182050Z VRB03KT 30KM FEW060SC BKN120AC 19/15 Q1023

Čas: 03:49 (01:49 UTC)

Předpověď počasí

Zpráva byla vytvořena před 14 hodinami a 34 minutami, v 11:15 UTC
Předpověď platná od 18 v 12 UTC do 18 v 21 UTC
vítr z různých směrů 3 kt
Viditelnost 10 km a více
Skoro jasno ve výšce 8000 ft
Dočasný
od 18 v 12 UTC do 18 v 18 UTC
Jihovýchodní vítr 8 kt
Skoro jasno ve výšce 6000 ft, Cumulonimbus.
Polojasno ve výšce 7000 ft

TAF: LOXZ 181115Z 1812/1821 VRB03KT 9999 FEW080 TEMPO 1812/1818 14008KT FEW060CB SCT070

Stav a předpovědi počasí z více než 4 000 letišť (zprávy METAR a TAF).

Červené a žluté tečky na mapě představují dostupné meteorologické stanice.

Když kurzor umístíte na tečku, zobrazí se název stanice.

Pak kliknutím zobrazíte stav a předpověď počasí.

Chcete-li změnit mapu, kliknutím na zelené tlačítko se znaménkem +mapu přiblížíte, kliknutím na zelené tlačítko se znaménkem – mapu oddálíte a kliknutím na zelené šipky přejdete na sousední mapy.


METAR-TAF: